Terminal Aerodrome Forecast
Issued by NWS

Home | Current Version | Previous Version | Graphics & Text | Print | Product List | Glossary On
Versions: 1 2 3 4 5 6 7 8 9 10 11 12 13 14 15 16 17 18 19 20 21 22 23 24 25
399
FTUS43 KBIS 211725
TAFMOT
TAF
KMOT 211725Z 2118/2218 25008KT P6SM BKN200
     FM212100 24012KT P6SM VCSH OVC090
     FM212300 25010KT P6SM -RA OVC050
     FM220300 28006KT P6SM -RASN OVC020
     FM220700 32006KT P6SM -RASN OVC008
     FM220900 34009KT P6SM -SN OVC003=

USA.gov is the U.S. government's official web portal to all federal, state and local government web resources and services.